sensor_id;sensor_type;location;lat;lon;timestamp;temperature;humidity
75821;DHT22;64454;51.984;9.838;2023-09-12T00:00:47;24.00;1.00
75821;DHT22;64454;51.984;9.838;2023-09-12T00:03:14;23.90;1.00
75821;DHT22;64454;51.984;9.838;2023-09-12T00:05:41;23.90;1.00
75821;DHT22;64454;51.984;9.838;2023-09-12T00:08:08;23.80;1.00
75821;DHT22;64454;51.984;9.838;2023-09-12T00:10:35;23.80;1.00
75821;DHT22;64454;51.984;9.838;2023-09-12T00:13:02;23.70;1.00
75821;DHT22;64454;51.984;9.838;2023-09-12T00:15:29;23.70;1.00
75821;DHT22;64454;51.984;9.838;2023-09-12T00:17:57;23.70;1.00
75821;DHT22;64454;51.984;9.838;2023-09-12T00:20:24;23.50;1.00
75821;DHT22;64454;51.984;9.838;2023-09-12T00:22:51;23.30;1.00
75821;DHT22;64454;51.984;9.838;2023-09-12T00:25:20;23.20;1.00
75821;DHT22;64454;51.984;9.838;2023-09-12T00:27:47;22.90;1.00
75821;DHT22;64454;51.984;9.838;2023-09-12T00:30:14;22.70;1.00
75821;DHT22;64454;51.984;9.838;2023-09-12T00:32:41;22.60;1.00
75821;DHT22;64454;51.984;9.838;2023-09-12T00:35:10;22.60;1.00
75821;DHT22;64454;51.984;9.838;2023-09-12T00:37:37;22.50;1.00
75821;DHT22;64454;51.984;9.838;2023-09-12T00:40:05;22.50;1.00
75821;DHT22;64454;51.984;9.838;2023-09-12T00:42:32;22.50;1.00
75821;DHT22;64454;51.984;9.838;2023-09-12T00:44:59;22.70;1.00
75821;DHT22;64454;51.984;9.838;2023-09-12T00:47:27;22.60;1.00
75821;DHT22;64454;51.984;9.838;2023-09-12T00:49:56;22.70;1.00
75821;DHT22;64454;51.984;9.838;2023-09-12T00:52:26;22.60;1.00
75821;DHT22;64454;51.984;9.838;2023-09-12T00:54:55;22.40;1.00
75821;DHT22;64454;51.984;9.838;2023-09-12T00:57:23;22.30;1.00
75821;DHT22;64454;51.984;9.838;2023-09-12T00:59:52;22.30;1.00
75821;DHT22;64454;51.984;9.838;2023-09-12T01:02:20;22.20;1.00
75821;DHT22;64454;51.984;9.838;2023-09-12T01:04:48;22.20;1.00
75821;DHT22;64454;51.984;9.838;2023-09-12T01:07:15;22.20;1.00
75821;DHT22;64454;51.984;9.838;2023-09-12T01:09:44;22.30;1.00
75821;DHT22;64454;51.984;9.838;2023-09-12T01:12:12;22.40;1.00
75821;DHT22;64454;51.984;9.838;2023-09-12T01:14:40;22.50;1.00
75821;DHT22;64454;51.984;9.838;2023-09-12T01:17:07;22.60;1.00
75821;DHT22;64454;51.984;9.838;2023-09-12T01:19:34;22.70;1.00
75821;DHT22;64454;51.984;9.838;2023-09-12T01:22:21;22.70;1.00
75821;DHT22;64454;51.984;9.838;2023-09-12T01:25:21;22.70;1.00
75821;DHT22;64454;51.984;9.838;2023-09-12T01:28:08;22.80;1.00
75821;DHT22;64454;51.984;9.838;2023-09-12T01:30:38;22.70;1.00
75821;DHT22;64454;51.984;9.838;2023-09-12T01:33:07;22.60;1.00
75821;DHT22;64454;51.984;9.838;2023-09-12T01:35:34;22.60;1.00
75821;DHT22;64454;51.984;9.838;2023-09-12T01:38:02;22.30;1.00
75821;DHT22;64454;51.984;9.838;2023-09-12T01:40:34;22.20;1.00
75821;DHT22;64454;51.984;9.838;2023-09-12T01:43:10;22.00;1.00
75821;DHT22;64454;51.984;9.838;2023-09-12T01:45:38;22.00;1.00
75821;DHT22;64454;51.984;9.838;2023-09-12T01:48:06;22.00;1.00
75821;DHT22;64454;51.984;9.838;2023-09-12T01:50:35;22.00;1.00
75821;DHT22;64454;51.984;9.838;2023-09-12T01:53:03;22.00;1.00
75821;DHT22;64454;51.984;9.838;2023-09-12T01:55:31;22.10;1.00
75821;DHT22;64454;51.984;9.838;2023-09-12T01:58:00;22.10;1.00
75821;DHT22;64454;51.984;9.838;2023-09-12T02:00:29;22.20;1.00
75821;DHT22;64454;51.984;9.838;2023-09-12T02:02:56;22.20;1.00
75821;DHT22;64454;51.984;9.838;2023-09-12T02:05:23;22.10;1.00
75821;DHT22;64454;51.984;9.838;2023-09-12T02:07:50;22.10;1.00
75821;DHT22;64454;51.984;9.838;2023-09-12T02:10:17;22.10;1.00
75821;DHT22;64454;51.984;9.838;2023-09-12T02:12:44;22.10;1.00
75821;DHT22;64454;51.984;9.838;2023-09-12T02:15:11;22.10;1.00
75821;DHT22;64454;51.984;9.838;2023-09-12T02:17:40;22.10;1.00
75821;DHT22;64454;51.984;9.838;2023-09-12T02:20:07;22.10;1.00
75821;DHT22;64454;51.984;9.838;2023-09-12T02:22:35;22.20;1.00
75821;DHT22;64454;51.984;9.838;2023-09-12T02:25:03;22.20;1.00
75821;DHT22;64454;51.984;9.838;2023-09-12T02:27:31;22.30;1.00
75821;DHT22;64454;51.984;9.838;2023-09-12T02:29:58;22.30;1.00
75821;DHT22;64454;51.984;9.838;2023-09-12T02:32:25;22.40;1.00
75821;DHT22;64454;51.984;9.838;2023-09-12T02:34:53;22.30;1.00
75821;DHT22;64454;51.984;9.838;2023-09-12T02:37:22;22.30;1.00
75821;DHT22;64454;51.984;9.838;2023-09-12T02:39:49;22.40;1.00
75821;DHT22;64454;51.984;9.838;2023-09-12T02:42:16;22.30;1.00
75821;DHT22;64454;51.984;9.838;2023-09-12T02:44:43;22.20;1.00
75821;DHT22;64454;51.984;9.838;2023-09-12T02:47:10;22.20;1.00
75821;DHT22;64454;51.984;9.838;2023-09-12T02:49:37;22.20;1.00
75821;DHT22;64454;51.984;9.838;2023-09-12T02:52:05;22.20;1.00
75821;DHT22;64454;51.984;9.838;2023-09-12T02:54:32;22.20;1.00
75821;DHT22;64454;51.984;9.838;2023-09-12T02:56:59;22.20;1.00
75821;DHT22;64454;51.984;9.838;2023-09-12T02:59:26;22.10;1.00
75821;DHT22;64454;51.984;9.838;2023-09-12T03:01:53;22.10;1.00
75821;DHT22;64454;51.984;9.838;2023-09-12T03:04:20;22.20;1.00
75821;DHT22;64454;51.984;9.838;2023-09-12T03:06:47;22.20;1.00
75821;DHT22;64454;51.984;9.838;2023-09-12T03:09:17;22.20;1.00
75821;DHT22;64454;51.984;9.838;2023-09-12T03:11:48;22.20;1.00
75821;DHT22;64454;51.984;9.838;2023-09-12T03:14:16;22.20;1.00
75821;DHT22;64454;51.984;9.838;2023-09-12T03:16:45;22.20;1.00
75821;DHT22;64454;51.984;9.838;2023-09-12T03:19:13;22.20;1.00
75821;DHT22;64454;51.984;9.838;2023-09-12T03:21:42;22.20;1.00
75821;DHT22;64454;51.984;9.838;2023-09-12T03:24:09;22.10;1.00
75821;DHT22;64454;51.984;9.838;2023-09-12T03:26:37;22.00;1.00
75821;DHT22;64454;51.984;9.838;2023-09-12T03:29:04;21.90;1.00
75821;DHT22;64454;51.984;9.838;2023-09-12T03:31:32;22.10;1.00
75821;DHT22;64454;51.984;9.838;2023-09-12T03:33:59;22.10;1.00
75821;DHT22;64454;51.984;9.838;2023-09-12T03:36:26;22.00;1.00
75821;DHT22;64454;51.984;9.838;2023-09-12T03:38:53;21.80;1.00
75821;DHT22;64454;51.984;9.838;2023-09-12T03:41:20;21.80;1.00
75821;DHT22;64454;51.984;9.838;2023-09-12T03:43:52;21.80;1.00
75821;DHT22;64454;51.984;9.838;2023-09-12T03:46:19;21.80;1.00
75821;DHT22;64454;51.984;9.838;2023-09-12T03:48:46;21.80;1.00
75821;DHT22;64454;51.984;9.838;2023-09-12T03:51:14;21.90;1.00
75821;DHT22;64454;51.984;9.838;2023-09-12T03:53:41;21.90;1.00
75821;DHT22;64454;51.984;9.838;2023-09-12T03:56:08;21.90;1.00
75821;DHT22;64454;51.984;9.838;2023-09-12T03:58:37;22.00;1.00
75821;DHT22;64454;51.984;9.838;2023-09-12T04:01:06;22.00;1.00
75821;DHT22;64454;51.984;9.838;2023-09-12T04:03:33;21.80;1.00
75821;DHT22;64454;51.984;9.838;2023-09-12T04:06:00;21.60;1.00
75821;DHT22;64454;51.984;9.838;2023-09-12T04:08:27;21.60;1.00
75821;DHT22;64454;51.984;9.838;2023-09-12T04:10:54;21.70;1.00
75821;DHT22;64454;51.984;9.838;2023-09-12T04:13:21;21.80;1.00
75821;DHT22;64454;51.984;9.838;2023-09-12T04:15:48;21.70;1.00
75821;DHT22;64454;51.984;9.838;2023-09-12T04:18:16;21.80;1.00
75821;DHT22;64454;51.984;9.838;2023-09-12T04:20:43;21.90;1.00
75821;DHT22;64454;51.984;9.838;2023-09-12T04:23:10;21.90;1.00
75821;DHT22;64454;51.984;9.838;2023-09-12T04:25:37;21.90;1.00
75821;DHT22;64454;51.984;9.838;2023-09-12T04:28:04;21.90;1.00
75821;DHT22;64454;51.984;9.838;2023-09-12T04:30:31;21.90;1.00
75821;DHT22;64454;51.984;9.838;2023-09-12T04:32:58;21.90;1.00
75821;DHT22;64454;51.984;9.838;2023-09-12T04:35:26;22.00;1.00
75821;DHT22;64454;51.984;9.838;2023-09-12T04:37:53;22.00;1.00
75821;DHT22;64454;51.984;9.838;2023-09-12T04:40:20;22.00;1.00
75821;DHT22;64454;51.984;9.838;2023-09-12T04:42:47;22.10;1.00
75821;DHT22;64454;51.984;9.838;2023-09-12T04:45:14;22.10;1.00
75821;DHT22;64454;51.984;9.838;2023-09-12T04:47:41;22.00;1.00
75821;DHT22;64454;51.984;9.838;2023-09-12T04:50:08;21.90;1.00
75821;DHT22;64454;51.984;9.838;2023-09-12T04:52:38;21.90;1.00
75821;DHT22;64454;51.984;9.838;2023-09-12T04:55:06;21.90;1.00
75821;DHT22;64454;51.984;9.838;2023-09-12T04:57:33;21.80;1.00
75821;DHT22;64454;51.984;9.838;2023-09-12T05:00:00;21.80;1.00
75821;DHT22;64454;51.984;9.838;2023-09-12T05:02:27;21.80;1.00
75821;DHT22;64454;51.984;9.838;2023-09-12T05:04:54;21.80;1.00
75821;DHT22;64454;51.984;9.838;2023-09-12T05:07:20;21.80;1.00
75821;DHT22;64454;51.984;9.838;2023-09-12T05:09:49;21.90;1.00
75821;DHT22;64454;51.984;9.838;2023-09-12T05:12:16;22.00;1.00
75821;DHT22;64454;51.984;9.838;2023-09-12T05:14:43;22.10;1.00
75821;DHT22;64454;51.984;9.838;2023-09-12T05:17:10;22.10;1.00
75821;DHT22;64454;51.984;9.838;2023-09-12T05:19:37;22.20;1.00
75821;DHT22;64454;51.984;9.838;2023-09-12T05:22:04;22.30;1.00
75821;DHT22;64454;51.984;9.838;2023-09-12T05:24:30;22.40;1.00
75821;DHT22;64454;51.984;9.838;2023-09-12T05:26:59;22.50;1.00
75821;DHT22;64454;51.984;9.838;2023-09-12T05:29:26;22.60;1.00
75821;DHT22;64454;51.984;9.838;2023-09-12T05:31:53;22.70;1.00
75821;DHT22;64454;51.984;9.838;2023-09-12T05:34:21;22.70;1.00
75821;DHT22;64454;51.984;9.838;2023-09-12T05:36:47;22.70;1.00
75821;DHT22;64454;51.984;9.838;2023-09-12T05:39:16;22.70;1.00
75821;DHT22;64454;51.984;9.838;2023-09-12T05:41:45;22.60;1.00
75821;DHT22;64454;51.984;9.838;2023-09-12T05:44:14;22.60;1.00
75821;DHT22;64454;51.984;9.838;2023-09-12T05:46:44;22.60;1.00
75821;DHT22;64454;51.984;9.838;2023-09-12T05:49:12;22.80;1.00
75821;DHT22;64454;51.984;9.838;2023-09-12T05:51:40;22.80;1.00
75821;DHT22;64454;51.984;9.838;2023-09-12T05:54:07;22.90;1.00
75821;DHT22;64454;51.984;9.838;2023-09-12T05:56:36;23.00;1.00
75821;DHT22;64454;51.984;9.838;2023-09-12T05:59:03;23.00;1.00
75821;DHT22;64454;51.984;9.838;2023-09-12T06:01:32;23.10;1.00
75821;DHT22;64454;51.984;9.838;2023-09-12T06:03:59;22.90;1.00
75821;DHT22;64454;51.984;9.838;2023-09-12T06:06:26;22.80;1.00
75821;DHT22;64454;51.984;9.838;2023-09-12T06:08:53;22.80;1.00
75821;DHT22;64454;51.984;9.838;2023-09-12T06:11:20;22.90;1.00
75821;DHT22;64454;51.984;9.838;2023-09-12T06:13:46;22.90;1.00
75821;DHT22;64454;51.984;9.838;2023-09-12T06:16:13;22.90;1.00
75821;DHT22;64454;51.984;9.838;2023-09-12T06:18:41;22.90;1.00
75821;DHT22;64454;51.984;9.838;2023-09-12T06:21:08;22.90;1.00
75821;DHT22;64454;51.984;9.838;2023-09-12T06:23:36;23.00;1.00
75821;DHT22;64454;51.984;9.838;2023-09-12T06:26:03;23.00;1.00
75821;DHT22;64454;51.984;9.838;2023-09-12T06:28:30;23.00;1.00
75821;DHT22;64454;51.984;9.838;2023-09-12T06:30:58;23.00;1.00
75821;DHT22;64454;51.984;9.838;2023-09-12T06:33:25;23.00;1.00
75821;DHT22;64454;51.984;9.838;2023-09-12T06:35:55;23.00;1.00
75821;DHT22;64454;51.984;9.838;2023-09-12T06:38:22;22.90;1.00
75821;DHT22;64454;51.984;9.838;2023-09-12T06:40:49;22.80;1.00
75821;DHT22;64454;51.984;9.838;2023-09-12T06:43:17;22.60;1.00
75821;DHT22;64454;51.984;9.838;2023-09-12T06:45:45;22.40;1.00
75821;DHT22;64454;51.984;9.838;2023-09-12T06:48:12;22.40;1.00
75821;DHT22;64454;51.984;9.838;2023-09-12T06:50:39;22.50;1.00
75821;DHT22;64454;51.984;9.838;2023-09-12T06:53:07;22.60;2.40
75821;DHT22;64454;51.984;9.838;2023-09-12T06:55:35;22.80;6.40
75821;DHT22;64454;51.984;9.838;2023-09-12T06:58:02;23.00;9.00
75821;DHT22;64454;51.984;9.838;2023-09-12T07:00:29;23.20;7.80
75821;DHT22;64454;51.984;9.838;2023-09-12T07:02:57;23.50;11.00
75821;DHT22;64454;51.984;9.838;2023-09-12T07:05:23;23.70;1.00
75821;DHT22;64454;51.984;9.838;2023-09-12T07:07:51;23.60;1.00
75821;DHT22;64454;51.984;9.838;2023-09-12T07:10:20;23.60;1.00
75821;DHT22;64454;51.984;9.838;2023-09-12T07:12:47;23.50;1.00
75821;DHT22;64454;51.984;9.838;2023-09-12T07:15:14;23.40;1.00
75821;DHT22;64454;51.984;9.838;2023-09-12T07:17:41;23.40;1.00
75821;DHT22;64454;51.984;9.838;2023-09-12T07:20:09;23.40;1.00
75821;DHT22;64454;51.984;9.838;2023-09-12T07:22:38;23.70;1.00
75821;DHT22;64454;51.984;9.838;2023-09-12T07:25:07;23.90;1.00
75821;DHT22;64454;51.984;9.838;2023-09-12T07:27:38;24.10;1.00
75821;DHT22;64454;51.984;9.838;2023-09-12T07:30:06;24.20;1.00
75821;DHT22;64454;51.984;9.838;2023-09-12T07:32:34;24.10;1.00
75821;DHT22;64454;51.984;9.838;2023-09-12T07:35:01;24.20;1.00
75821;DHT22;64454;51.984;9.838;2023-09-12T07:37:28;24.30;1.00
75821;DHT22;64454;51.984;9.838;2023-09-12T07:39:55;24.30;1.00
75821;DHT22;64454;51.984;9.838;2023-09-12T07:42:22;24.40;1.00
75821;DHT22;64454;51.984;9.838;2023-09-12T07:44:51;24.60;1.00
75821;DHT22;64454;51.984;9.838;2023-09-12T07:47:18;24.70;1.00
75821;DHT22;64454;51.984;9.838;2023-09-12T07:49:45;24.80;1.00
75821;DHT22;64454;51.984;9.838;2023-09-12T07:52:18;24.90;1.00
75821;DHT22;64454;51.984;9.838;2023-09-12T07:54:45;24.80;1.00
75821;DHT22;64454;51.984;9.838;2023-09-12T07:57:12;25.00;1.00
75821;DHT22;64454;51.984;9.838;2023-09-12T07:59:39;25.30;1.00
75821;DHT22;64454;51.984;9.838;2023-09-12T08:02:07;25.90;1.00
75821;DHT22;64454;51.984;9.838;2023-09-12T08:04:38;26.80;1.00
75821;DHT22;64454;51.984;9.838;2023-09-12T08:07:05;28.10;1.00
75821;DHT22;64454;51.984;9.838;2023-09-12T08:09:50;29.40;1.00
75821;DHT22;64454;51.984;9.838;2023-09-12T08:12:18;29.50;1.00
75821;DHT22;64454;51.984;9.838;2023-09-12T08:14:46;29.50;1.00
75821;DHT22;64454;51.984;9.838;2023-09-12T08:17:15;29.20;1.00
75821;DHT22;64454;51.984;9.838;2023-09-12T08:19:42;29.00;1.00
75821;DHT22;64454;51.984;9.838;2023-09-12T08:22:10;28.70;1.00
75821;DHT22;64454;51.984;9.838;2023-09-12T08:24:38;28.50;1.00
75821;DHT22;64454;51.984;9.838;2023-09-12T08:27:05;28.30;1.00
75821;DHT22;64454;51.984;9.838;2023-09-12T08:29:33;28.40;1.00
75821;DHT22;64454;51.984;9.838;2023-09-12T08:32:01;28.80;1.00
75821;DHT22;64454;51.984;9.838;2023-09-12T08:34:30;29.30;1.00
75821;DHT22;64454;51.984;9.838;2023-09-12T08:36:57;29.50;1.00
75821;DHT22;64454;51.984;9.838;2023-09-12T08:39:25;29.50;1.00
75821;DHT22;64454;51.984;9.838;2023-09-12T08:41:53;29.20;1.00
75821;DHT22;64454;51.984;9.838;2023-09-12T08:44:21;29.20;1.00
75821;DHT22;64454;51.984;9.838;2023-09-12T08:46:48;29.10;1.00
75821;DHT22;64454;51.984;9.838;2023-09-12T08:49:17;28.90;1.00
75821;DHT22;64454;51.984;9.838;2023-09-12T08:51:46;28.80;1.00
75821;DHT22;64454;51.984;9.838;2023-09-12T08:54:14;28.50;1.00
75821;DHT22;64454;51.984;9.838;2023-09-12T08:56:43;28.20;1.00
75821;DHT22;64454;51.984;9.838;2023-09-12T08:59:12;27.80;1.00
75821;DHT22;64454;51.984;9.838;2023-09-12T09:01:40;27.50;1.00
75821;DHT22;64454;51.984;9.838;2023-09-12T09:04:09;27.40;1.00
75821;DHT22;64454;51.984;9.838;2023-09-12T09:06:36;27.10;1.00
75821;DHT22;64454;51.984;9.838;2023-09-12T09:09:06;27.00;1.00
75821;DHT22;64454;51.984;9.838;2023-09-12T09:11:35;27.00;1.00
75821;DHT22;64454;51.984;9.838;2023-09-12T09:14:02;26.90;1.00
75821;DHT22;64454;51.984;9.838;2023-09-12T09:16:29;26.70;1.00
75821;DHT22;64454;51.984;9.838;2023-09-12T09:18:58;26.50;1.00
75821;DHT22;64454;51.984;9.838;2023-09-12T09:21:27;26.30;1.00
75821;DHT22;64454;51.984;9.838;2023-09-12T09:23:59;26.30;1.00
75821;DHT22;64454;51.984;9.838;2023-09-12T09:26:41;26.00;1.00
75821;DHT22;64454;51.984;9.838;2023-09-12T09:29:12;26.20;1.00
75821;DHT22;64454;51.984;9.838;2023-09-12T09:31:43;26.50;1.00
75821;DHT22;64454;51.984;9.838;2023-09-12T09:34:12;26.30;1.00
75821;DHT22;64454;51.984;9.838;2023-09-12T09:36:42;26.30;1.00
75821;DHT22;64454;51.984;9.838;2023-09-12T09:39:10;26.30;1.00
75821;DHT22;64454;51.984;9.838;2023-09-12T09:41:40;25.90;1.00
75821;DHT22;64454;51.984;9.838;2023-09-12T09:44:08;25.90;1.00
75821;DHT22;64454;51.984;9.838;2023-09-12T09:46:36;25.70;1.00
75821;DHT22;64454;51.984;9.838;2023-09-12T09:49:04;25.50;1.00
75821;DHT22;64454;51.984;9.838;2023-09-12T09:51:32;25.60;1.00
75821;DHT22;64454;51.984;9.838;2023-09-12T09:54:07;25.70;1.00
75821;DHT22;64454;51.984;9.838;2023-09-12T09:56:46;25.70;1.00
75821;DHT22;64454;51.984;9.838;2023-09-12T09:59:15;25.80;1.00
75821;DHT22;64454;51.984;9.838;2023-09-12T10:01:46;26.10;1.00
75821;DHT22;64454;51.984;9.838;2023-09-12T10:04:18;27.30;1.00
75821;DHT22;64454;51.984;9.838;2023-09-12T10:06:47;27.80;1.00
75821;DHT22;64454;51.984;9.838;2023-09-12T10:09:15;27.80;1.00
75821;DHT22;64454;51.984;9.838;2023-09-12T10:11:47;29.10;1.00
75821;DHT22;64454;51.984;9.838;2023-09-12T10:14:20;30.80;1.00
75821;DHT22;64454;51.984;9.838;2023-09-12T10:16:49;31.80;1.00
75821;DHT22;64454;51.984;9.838;2023-09-12T10:19:21;32.40;1.00
75821;DHT22;64454;51.984;9.838;2023-09-12T10:21:52;32.60;1.00
75821;DHT22;64454;51.984;9.838;2023-09-12T10:24:24;32.60;1.00
75821;DHT22;64454;51.984;9.838;2023-09-12T10:26:55;32.30;1.00
75821;DHT22;64454;51.984;9.838;2023-09-12T10:29:24;32.20;1.00
75821;DHT22;64454;51.984;9.838;2023-09-12T10:31:51;31.80;1.00
75821;DHT22;64454;51.984;9.838;2023-09-12T10:34:19;32.30;1.00
75821;DHT22;64454;51.984;9.838;2023-09-12T10:36:49;33.00;1.00
75821;DHT22;64454;51.984;9.838;2023-09-12T10:39:20;33.30;1.00
75821;DHT22;64454;51.984;9.838;2023-09-12T10:41:49;34.10;1.00
75821;DHT22;64454;51.984;9.838;2023-09-12T10:44:23;34.40;1.00
75821;DHT22;64454;51.984;9.838;2023-09-12T10:46:52;34.50;1.00
75821;DHT22;64454;51.984;9.838;2023-09-12T10:49:20;33.40;1.00
75821;DHT22;64454;51.984;9.838;2023-09-12T10:51:48;32.50;1.00
75821;DHT22;64454;51.984;9.838;2023-09-12T10:54:23;31.50;1.00
75821;DHT22;64454;51.984;9.838;2023-09-12T10:57:05;30.50;1.00
75821;DHT22;64454;51.984;9.838;2023-09-12T10:59:34;29.70;1.00
75821;DHT22;64454;51.984;9.838;2023-09-12T11:02:27;29.20;1.00
75821;DHT22;64454;51.984;9.838;2023-09-12T11:04:56;28.40;1.00
75821;DHT22;64454;51.984;9.838;2023-09-12T11:07:33;28.30;1.00
75821;DHT22;64454;51.984;9.838;2023-09-12T11:10:21;28.20;1.00
75821;DHT22;64454;51.984;9.838;2023-09-12T11:12:50;27.90;1.00
75821;DHT22;64454;51.984;9.838;2023-09-12T11:15:20;27.70;1.00
75821;DHT22;64454;51.984;9.838;2023-09-12T11:17:48;27.30;1.00
75821;DHT22;64454;51.984;9.838;2023-09-12T11:20:16;27.40;1.00
75821;DHT22;64454;51.984;9.838;2023-09-12T11:22:44;27.40;1.00
75821;DHT22;64454;51.984;9.838;2023-09-12T11:25:17;27.30;1.00
75821;DHT22;64454;51.984;9.838;2023-09-12T11:28:03;27.30;1.00
75821;DHT22;64454;51.984;9.838;2023-09-12T11:30:32;27.10;1.00
75821;DHT22;64454;51.984;9.838;2023-09-12T11:33:04;27.10;1.00
75821;DHT22;64454;51.984;9.838;2023-09-12T11:35:37;26.80;1.00
75821;DHT22;64454;51.984;9.838;2023-09-12T11:38:10;26.50;1.00
75821;DHT22;64454;51.984;9.838;2023-09-12T11:40:44;26.40;1.00
75821;DHT22;64454;51.984;9.838;2023-09-12T11:43:20;26.00;1.00
75821;DHT22;64454;51.984;9.838;2023-09-12T11:45:50;26.10;1.00
75821;DHT22;64454;51.984;9.838;2023-09-12T11:48:18;26.00;1.00
75821;DHT22;64454;51.984;9.838;2023-09-12T11:50:50;26.00;1.00
75821;DHT22;64454;51.984;9.838;2023-09-12T11:53:20;25.80;1.00
75821;DHT22;64454;51.984;9.838;2023-09-12T11:55:53;25.80;1.00
75821;DHT22;64454;51.984;9.838;2023-09-12T11:58:21;25.70;1.00
75821;DHT22;64454;51.984;9.838;2023-09-12T12:00:52;25.60;1.00
75821;DHT22;64454;51.984;9.838;2023-09-12T12:03:23;25.70;1.00
75821;DHT22;64454;51.984;9.838;2023-09-12T12:05:51;25.50;1.00
75821;DHT22;64454;51.984;9.838;2023-09-12T12:08:20;25.40;1.00
75821;DHT22;64454;51.984;9.838;2023-09-12T12:10:49;25.70;1.00
75821;DHT22;64454;51.984;9.838;2023-09-12T12:13:17;26.20;1.00
75821;DHT22;64454;51.984;9.838;2023-09-12T12:15:45;26.50;1.00
75821;DHT22;64454;51.984;9.838;2023-09-12T12:18:13;27.40;1.00
75821;DHT22;64454;51.984;9.838;2023-09-12T12:20:41;28.60;1.00
75821;DHT22;64454;51.984;9.838;2023-09-12T12:23:08;29.70;1.00
75821;DHT22;64454;51.984;9.838;2023-09-12T12:25:35;30.30;1.00
75821;DHT22;64454;51.984;9.838;2023-09-12T12:28:03;31.80;1.00
75821;DHT22;64454;51.984;9.838;2023-09-12T12:30:31;34.30;1.00
75821;DHT22;64454;51.984;9.838;2023-09-12T12:33:00;36.90;1.00
75821;DHT22;64454;51.984;9.838;2023-09-12T12:35:30;39.00;1.00
75821;DHT22;64454;51.984;9.838;2023-09-12T12:37:57;40.60;1.00
75821;DHT22;64454;51.984;9.838;2023-09-12T12:40:24;41.60;1.00
75821;DHT22;64454;51.984;9.838;2023-09-12T12:42:51;42.20;1.00
75821;DHT22;64454;51.984;9.838;2023-09-12T12:45:20;42.50;1.00
75821;DHT22;64454;51.984;9.838;2023-09-12T12:47:51;43.40;99.90
75821;DHT22;64454;51.984;9.838;2023-09-12T12:50:24;43.90;99.90
75821;DHT22;64454;51.984;9.838;2023-09-12T12:52:52;43.90;99.90
75821;DHT22;64454;51.984;9.838;2023-09-12T12:55:20;44.10;99.90
75821;DHT22;64454;51.984;9.838;2023-09-12T12:57:51;43.70;99.90
75821;DHT22;64454;51.984;9.838;2023-09-12T13:00:18;43.40;99.90
75821;DHT22;64454;51.984;9.838;2023-09-12T13:02:46;43.70;99.90
75821;DHT22;64454;51.984;9.838;2023-09-12T13:05:21;44.00;99.90
75821;DHT22;64454;51.984;9.838;2023-09-12T13:07:52;43.90;99.90
75821;DHT22;64454;51.984;9.838;2023-09-12T13:10:19;43.00;99.90
75821;DHT22;64454;51.984;9.838;2023-09-12T13:12:47;42.40;99.90
75821;DHT22;64454;51.984;9.838;2023-09-12T13:15:14;40.60;1.00
75821;DHT22;64454;51.984;9.838;2023-09-12T13:17:43;39.20;1.00
75821;DHT22;64454;51.984;9.838;2023-09-12T13:20:11;38.80;1.00
75821;DHT22;64454;51.984;9.838;2023-09-12T13:22:38;39.10;1.00
75821;DHT22;64454;51.984;9.838;2023-09-12T13:25:08;39.50;1.00
75821;DHT22;64454;51.984;9.838;2023-09-12T13:27:35;39.60;1.00
75821;DHT22;64454;51.984;9.838;2023-09-12T13:30:03;39.40;1.00
75821;DHT22;64454;51.984;9.838;2023-09-12T13:32:31;39.30;1.00
75821;DHT22;64454;51.984;9.838;2023-09-12T13:34:58;40.10;1.00
75821;DHT22;64454;51.984;9.838;2023-09-12T13:37:25;41.00;1.00
75821;DHT22;64454;51.984;9.838;2023-09-12T13:39:53;41.10;1.00
75821;DHT22;64454;51.984;9.838;2023-09-12T13:42:22;41.90;99.90
75821;DHT22;64454;51.984;9.838;2023-09-12T13:44:49;41.20;99.90
75821;DHT22;64454;51.984;9.838;2023-09-12T13:47:16;40.70;1.40
75821;DHT22;64454;51.984;9.838;2023-09-12T13:49:47;40.30;1.00
75821;DHT22;64454;51.984;9.838;2023-09-12T13:52:14;40.90;1.00
75821;DHT22;64454;51.984;9.838;2023-09-12T13:54:41;41.20;99.90
75821;DHT22;64454;51.984;9.838;2023-09-12T13:57:08;41.80;1.40
75821;DHT22;64454;51.984;9.838;2023-09-12T13:59:36;41.40;1.00
75821;DHT22;64454;51.984;9.838;2023-09-12T14:02:03;40.60;1.00
75821;DHT22;64454;51.984;9.838;2023-09-12T14:04:30;39.60;1.00
75821;DHT22;64454;51.984;9.838;2023-09-12T14:06:57;38.70;1.00
75821;DHT22;64454;51.984;9.838;2023-09-12T14:09:24;37.90;1.00
75821;DHT22;64454;51.984;9.838;2023-09-12T14:11:51;36.90;1.00
75821;DHT22;64454;51.984;9.838;2023-09-12T14:14:20;35.70;1.00
75821;DHT22;64454;51.984;9.838;2023-09-12T14:16:48;35.00;1.00
75821;DHT22;64454;51.984;9.838;2023-09-12T14:19:17;34.40;1.00
75821;DHT22;64454;51.984;9.838;2023-09-12T14:21:46;33.60;1.00
75821;DHT22;64454;51.984;9.838;2023-09-12T14:24:13;33.10;1.00
75821;DHT22;64454;51.984;9.838;2023-09-12T14:26:42;32.60;1.00
75821;DHT22;64454;51.984;9.838;2023-09-12T14:29:09;32.50;1.00
75821;DHT22;64454;51.984;9.838;2023-09-12T14:31:36;32.20;1.00
75821;DHT22;64454;51.984;9.838;2023-09-12T14:34:05;32.20;1.00
75821;DHT22;64454;51.984;9.838;2023-09-12T14:36:33;32.30;1.00
75821;DHT22;64454;51.984;9.838;2023-09-12T14:39:00;31.60;1.00
75821;DHT22;64454;51.984;9.838;2023-09-12T14:41:28;30.60;1.00
75821;DHT22;64454;51.984;9.838;2023-09-12T14:43:54;29.50;1.00
75821;DHT22;64454;51.984;9.838;2023-09-12T14:46:21;28.90;1.00
75821;DHT22;64454;51.984;9.838;2023-09-12T14:48:48;28.50;1.00
75821;DHT22;64454;51.984;9.838;2023-09-12T14:51:17;28.10;1.00
75821;DHT22;64454;51.984;9.838;2023-09-12T14:53:43;27.70;1.00
75821;DHT22;64454;51.984;9.838;2023-09-12T14:56:12;27.50;1.00
75821;DHT22;64454;51.984;9.838;2023-09-12T14:58:39;27.30;1.00
75821;DHT22;64454;51.984;9.838;2023-09-12T15:01:06;27.10;1.00
75821;DHT22;64454;51.984;9.838;2023-09-12T15:03:33;27.00;1.00
75821;DHT22;64454;51.984;9.838;2023-09-12T15:06:05;27.20;1.00
75821;DHT22;64454;51.984;9.838;2023-09-12T15:08:33;27.30;1.00
75821;DHT22;64454;51.984;9.838;2023-09-12T15:11:01;27.30;1.00
75821;DHT22;64454;51.984;9.838;2023-09-12T15:13:29;27.30;1.00
75821;DHT22;64454;51.984;9.838;2023-09-12T15:15:56;27.50;1.00
75821;DHT22;64454;51.984;9.838;2023-09-12T15:18:23;27.60;1.00
75821;DHT22;64454;51.984;9.838;2023-09-12T15:20:51;27.60;1.00
75821;DHT22;64454;51.984;9.838;2023-09-12T15:23:19;27.40;1.00
75821;DHT22;64454;51.984;9.838;2023-09-12T15:25:49;27.40;1.00
75821;DHT22;64454;51.984;9.838;2023-09-12T15:28:17;27.20;1.00
75821;DHT22;64454;51.984;9.838;2023-09-12T15:30:44;27.10;1.00
75821;DHT22;64454;51.984;9.838;2023-09-12T15:33:11;26.90;1.00
75821;DHT22;64454;51.984;9.838;2023-09-12T15:35:38;26.80;1.00
75821;DHT22;64454;51.984;9.838;2023-09-12T15:38:05;26.90;1.00
75821;DHT22;64454;51.984;9.838;2023-09-12T15:40:33;26.90;1.00
75821;DHT22;64454;51.984;9.838;2023-09-12T15:43:01;26.90;1.00
75821;DHT22;64454;51.984;9.838;2023-09-12T15:45:28;26.90;1.00
75821;DHT22;64454;51.984;9.838;2023-09-12T15:47:55;26.90;1.00
75821;DHT22;64454;51.984;9.838;2023-09-12T15:50:22;27.00;1.00
75821;DHT22;64454;51.984;9.838;2023-09-12T15:52:49;27.00;1.00